sensor_id;sensor_type;location;lat;lon;timestamp;pressure;altitude;pressure_sealevel;temperature;humidity
49063;BME280;34876;51.464;-0.150;2023-11-21T00:00:45;101339.09;;;18.73;47.15
49063;BME280;34876;51.464;-0.150;2023-11-21T00:03:14;101346.84;;;18.72;47.17
49063;BME280;34876;51.464;-0.150;2023-11-21T00:05:47;101345.62;;;18.73;47.12
49063;BME280;34876;51.464;-0.150;2023-11-21T00:08:16;101346.69;;;18.71;47.20
49063;BME280;34876;51.464;-0.150;2023-11-21T00:10:46;101342.35;;;18.75;47.12
49063;BME280;34876;51.464;-0.150;2023-11-21T00:13:16;101343.77;;;18.74;47.15
49063;BME280;34876;51.464;-0.150;2023-11-21T00:15:47;101347.16;;;18.68;47.29
49063;BME280;34876;51.464;-0.150;2023-11-21T00:18:17;101348.77;;;18.73;47.17
49063;BME280;34876;51.464;-0.150;2023-11-21T00:20:49;101352.34;;;18.71;47.23
49063;BME280;34876;51.464;-0.150;2023-11-21T00:24:07;101356.21;;;18.71;47.23
49063;BME280;34876;51.464;-0.150;2023-11-21T00:26:36;101363.25;;;18.68;47.39
49063;BME280;34876;51.464;-0.150;2023-11-21T00:29:05;101368.02;;;18.70;47.29
49063;BME280;34876;51.464;-0.150;2023-11-21T00:31:35;101367.65;;;18.71;47.26
49063;BME280;34876;51.464;-0.150;2023-11-21T00:34:05;101372.16;;;18.63;47.48
49063;BME280;34876;51.464;-0.150;2023-11-21T00:36:41;101375.09;;;18.71;47.27
49063;BME280;34876;51.464;-0.150;2023-11-21T00:39:11;101378.70;;;18.73;47.23
49063;BME280;34876;51.464;-0.150;2023-11-21T00:41:40;101385.09;;;18.71;47.28
49063;BME280;34876;51.464;-0.150;2023-11-21T00:44:11;101391.29;;;18.72;47.27
49063;BME280;34876;51.464;-0.150;2023-11-21T00:46:40;101397.34;;;18.72;47.31
49063;BME280;34876;51.464;-0.150;2023-11-21T00:49:10;101403.16;;;18.60;47.62
49063;BME280;34876;51.464;-0.150;2023-11-21T00:51:40;101405.85;;;18.68;47.38
49063;BME280;34876;51.464;-0.150;2023-11-21T00:54:30;101405.13;;;18.69;47.37
49063;BME280;34876;51.464;-0.150;2023-11-21T00:57:01;101404.99;;;18.70;47.36
49063;BME280;34876;51.464;-0.150;2023-11-21T00:59:31;101403.00;;;18.70;47.32
49063;BME280;34876;51.464;-0.150;2023-11-21T01:03:20;101406.97;;;18.71;47.34
49063;BME280;34876;51.464;-0.150;2023-11-21T01:05:49;101409.77;;;18.72;47.32
49063;BME280;34876;51.464;-0.150;2023-11-21T01:08:19;101413.82;;;18.70;47.39
49063;BME280;34876;51.464;-0.150;2023-11-21T01:10:49;101415.16;;;18.70;47.37
49063;BME280;34876;51.464;-0.150;2023-11-21T01:13:18;101420.65;;;18.72;47.36
49063;BME280;34876;51.464;-0.150;2023-11-21T01:15:48;101430.29;;;18.63;47.60
49063;BME280;34876;51.464;-0.150;2023-11-21T01:18:18;101430.45;;;18.69;47.43
49063;BME280;34876;51.464;-0.150;2023-11-21T01:20:47;101433.67;;;18.68;47.45
49063;BME280;34876;51.464;-0.150;2023-11-21T01:23:18;101440.02;;;18.43;48.14
49063;BME280;34876;51.464;-0.150;2023-11-21T01:25:49;101438.98;;;18.66;47.57
49063;BME280;34876;51.464;-0.150;2023-11-21T01:28:17;101435.72;;;18.68;47.48
49063;BME280;34876;51.464;-0.150;2023-11-21T01:30:48;101440.93;;;18.68;47.51
49063;BME280;34876;51.464;-0.150;2023-11-21T01:33:19;101439.59;;;18.68;47.51
49063;BME280;34876;51.464;-0.150;2023-11-21T01:35:47;101447.66;;;18.67;47.54
49063;BME280;34876;51.464;-0.150;2023-11-21T01:38:17;101449.20;;;18.67;47.56
49063;BME280;34876;51.464;-0.150;2023-11-21T01:40:47;101452.32;;;18.68;47.54
49063;BME280;34876;51.464;-0.150;2023-11-21T01:43:18;101459.53;;;18.69;47.52
49063;BME280;34876;51.464;-0.150;2023-11-21T01:45:50;101466.60;;;18.69;47.52
49063;BME280;34876;51.464;-0.150;2023-11-21T01:48:20;101473.64;;;18.70;47.54
49063;BME280;34876;51.464;-0.150;2023-11-21T01:50:50;101472.61;;;18.64;47.72
49063;BME280;34876;51.464;-0.150;2023-11-21T01:53:20;101472.12;;;18.67;47.60
49063;BME280;34876;51.464;-0.150;2023-11-21T01:55:50;101471.46;;;18.66;47.70
49063;BME280;34876;51.464;-0.150;2023-11-21T01:58:20;101477.62;;;18.68;47.60
49063;BME280;34876;51.464;-0.150;2023-11-21T02:00:48;101480.97;;;18.67;47.64
49063;BME280;34876;51.464;-0.150;2023-11-21T02:03:17;101484.71;;;18.65;47.68
49063;BME280;34876;51.464;-0.150;2023-11-21T02:05:45;101486.62;;;18.68;47.65
49063;BME280;34876;51.464;-0.150;2023-11-21T02:08:14;101488.82;;;18.67;47.69
49063;BME280;34876;51.464;-0.150;2023-11-21T02:10:44;101490.01;;;18.66;47.71
49063;BME280;34876;51.464;-0.150;2023-11-21T02:13:19;101493.36;;;18.66;47.76
49063;BME280;34876;51.464;-0.150;2023-11-21T02:15:48;101497.94;;;18.65;47.75
49063;BME280;34876;51.464;-0.150;2023-11-21T02:18:18;101497.75;;;18.64;47.81
49063;BME280;34876;51.464;-0.150;2023-11-21T02:20:47;101499.99;;;18.65;47.78
49063;BME280;34876;51.464;-0.150;2023-11-21T02:23:18;101504.92;;;18.67;47.79
49063;BME280;34876;51.464;-0.150;2023-11-21T02:25:54;101509.68;;;18.67;47.81
49063;BME280;34876;51.464;-0.150;2023-11-21T02:28:29;101511.87;;;18.65;47.84
49063;BME280;34876;51.464;-0.150;2023-11-21T02:30:59;101513.45;;;18.65;47.89
49063;BME280;34876;51.464;-0.150;2023-11-21T02:33:29;101517.48;;;18.65;47.88
49063;BME280;34876;51.464;-0.150;2023-11-21T02:36:10;101516.91;;;18.67;47.88
49063;BME280;34876;51.464;-0.150;2023-11-21T02:38:41;101520.61;;;18.65;47.91
49063;BME280;34876;51.464;-0.150;2023-11-21T02:41:11;101522.35;;;18.65;47.94
49063;BME280;34876;51.464;-0.150;2023-11-21T02:43:40;101528.06;;;18.65;47.94
49063;BME280;34876;51.464;-0.150;2023-11-21T02:46:09;101532.48;;;18.64;48.01
49063;BME280;34876;51.464;-0.150;2023-11-21T02:48:44;101536.28;;;18.62;48.07
49063;BME280;34876;51.464;-0.150;2023-11-21T02:51:13;101539.69;;;18.65;48.01
49063;BME280;34876;51.464;-0.150;2023-11-21T02:53:51;101537.98;;;18.65;48.00
49063;BME280;34876;51.464;-0.150;2023-11-21T02:56:25;101539.55;;;18.64;48.04
49063;BME280;34876;51.464;-0.150;2023-11-21T02:59:00;101539.98;;;18.64;48.04
49063;BME280;34876;51.464;-0.150;2023-11-21T03:01:31;101541.51;;;18.55;48.28
49063;BME280;34876;51.464;-0.150;2023-11-21T03:03:59;101544.28;;;18.54;48.31
49063;BME280;34876;51.464;-0.150;2023-11-21T03:06:28;101548.08;;;18.61;48.15
49063;BME280;34876;51.464;-0.150;2023-11-21T03:08:58;101552.69;;;18.61;48.16
49063;BME280;34876;51.464;-0.150;2023-11-21T03:11:26;101556.87;;;18.64;48.10
49063;BME280;34876;51.464;-0.150;2023-11-21T03:13:55;101563.47;;;18.63;48.13
49063;BME280;34876;51.464;-0.150;2023-11-21T03:16:24;101568.41;;;18.60;48.22
49063;BME280;34876;51.464;-0.150;2023-11-21T03:18:53;101568.19;;;18.64;48.09
49063;BME280;34876;51.464;-0.150;2023-11-21T03:21:22;101574.89;;;18.61;48.16
49063;BME280;34876;51.464;-0.150;2023-11-21T03:23:50;101579.21;;;18.61;48.14
49063;BME280;34876;51.464;-0.150;2023-11-21T03:26:21;101579.97;;;18.62;48.12
49063;BME280;34876;51.464;-0.150;2023-11-21T03:28:50;101581.87;;;18.58;48.24
49063;BME280;34876;51.464;-0.150;2023-11-21T03:31:19;101581.22;;;18.62;48.14
49063;BME280;34876;51.464;-0.150;2023-11-21T03:33:49;101579.86;;;18.38;48.77
49063;BME280;34876;51.464;-0.150;2023-11-21T03:36:19;101590.41;;;17.97;49.87
49063;BME280;34876;51.464;-0.150;2023-11-21T03:38:48;101594.48;;;17.64;50.85
49063;BME280;34876;51.464;-0.150;2023-11-21T03:41:17;101594.28;;;18.12;49.54
49063;BME280;34876;51.464;-0.150;2023-11-21T03:43:46;101605.00;;;17.71;51.05
49063;BME280;34876;51.464;-0.150;2023-11-21T03:46:15;101600.01;;;18.17;49.39
49063;BME280;34876;51.464;-0.150;2023-11-21T03:48:44;101604.35;;;18.35;48.86
49063;BME280;34876;51.464;-0.150;2023-11-21T03:51:13;101606.22;;;18.32;48.90
49063;BME280;34876;51.464;-0.150;2023-11-21T03:53:42;101606.86;;;17.79;50.33
49063;BME280;34876;51.464;-0.150;2023-11-21T03:56:11;101612.97;;;18.18;49.31
49063;BME280;34876;51.464;-0.150;2023-11-21T03:58:40;101612.11;;;18.31;48.94
49063;BME280;34876;51.464;-0.150;2023-11-21T04:01:09;101615.43;;;18.34;48.82
49063;BME280;34876;51.464;-0.150;2023-11-21T04:03:38;101621.68;;;18.18;49.26
49063;BME280;34876;51.464;-0.150;2023-11-21T04:06:08;101629.31;;;18.22;49.12
49063;BME280;34876;51.464;-0.150;2023-11-21T04:08:37;101632.84;;;18.41;48.60
49063;BME280;34876;51.464;-0.150;2023-11-21T04:11:06;101634.23;;;18.39;48.61
49063;BME280;34876;51.464;-0.150;2023-11-21T04:13:35;101635.27;;;18.40;48.54
49063;BME280;34876;51.464;-0.150;2023-11-21T04:16:05;101640.09;;;18.48;48.31
49063;BME280;34876;51.464;-0.150;2023-11-21T04:18:36;101643.91;;;18.44;48.43
49063;BME280;34876;51.464;-0.150;2023-11-21T04:21:07;101642.22;;;18.39;48.55
49063;BME280;34876;51.464;-0.150;2023-11-21T04:23:36;101645.25;;;18.46;48.35
49063;BME280;34876;51.464;-0.150;2023-11-21T04:26:05;101650.51;;;18.42;48.46
49063;BME280;34876;51.464;-0.150;2023-11-21T04:28:35;101655.17;;;18.49;48.24
49063;BME280;34876;51.464;-0.150;2023-11-21T04:31:04;101663.77;;;18.35;48.70
49063;BME280;34876;51.464;-0.150;2023-11-21T04:33:33;101669.44;;;18.24;49.17
49063;BME280;34876;51.464;-0.150;2023-11-21T04:36:03;101673.10;;;18.16;49.09
49063;BME280;34876;51.464;-0.150;2023-11-21T04:38:32;101680.09;;;18.17;49.12
49063;BME280;34876;51.464;-0.150;2023-11-21T04:41:01;101680.15;;;18.22;48.93
49063;BME280;34876;51.464;-0.150;2023-11-21T04:43:30;101687.06;;;17.47;50.56
49063;BME280;34876;51.464;-0.150;2023-11-21T04:45:59;101695.89;;;18.12;49.25
49063;BME280;34876;51.464;-0.150;2023-11-21T04:48:28;101696.95;;;18.36;48.55
49063;BME280;34876;51.464;-0.150;2023-11-21T04:50:57;101700.71;;;18.34;48.60
49063;BME280;34876;51.464;-0.150;2023-11-21T04:53:27;101710.78;;;18.26;48.84
49063;BME280;34876;51.464;-0.150;2023-11-21T04:55:56;101711.21;;;18.21;48.92
49063;BME280;34876;51.464;-0.150;2023-11-21T04:58:26;101714.80;;;18.15;49.10
49063;BME280;34876;51.464;-0.150;2023-11-21T05:00:55;101714.97;;;18.33;48.55
49063;BME280;34876;51.464;-0.150;2023-11-21T05:03:24;101719.45;;;18.03;49.24
49063;BME280;34876;51.464;-0.150;2023-11-21T05:05:53;101718.52;;;18.20;48.90
49063;BME280;34876;51.464;-0.150;2023-11-21T05:08:23;101723.08;;;17.95;49.55
49063;BME280;34876;51.464;-0.150;2023-11-21T05:10:52;101723.97;;;18.21;48.87
49063;BME280;34876;51.464;-0.150;2023-11-21T05:13:22;101725.01;;;17.26;50.71
49063;BME280;34876;51.464;-0.150;2023-11-21T05:15:51;101722.90;;;18.20;48.92
49063;BME280;34876;51.464;-0.150;2023-11-21T05:18:20;101722.30;;;17.80;49.92
49063;BME280;34876;51.464;-0.150;2023-11-21T05:20:49;101726.64;;;18.24;48.72
49063;BME280;34876;51.464;-0.150;2023-11-21T05:23:18;101724.82;;;18.22;48.62
49063;BME280;34876;51.464;-0.150;2023-11-21T05:25:47;101725.21;;;18.36;48.34
49063;BME280;34876;51.464;-0.150;2023-11-21T05:28:16;101729.96;;;18.18;48.79
49063;BME280;34876;51.464;-0.150;2023-11-21T05:30:46;101733.68;;;18.28;48.51
49063;BME280;34876;51.464;-0.150;2023-11-21T05:33:15;101738.25;;;18.01;48.34
49063;BME280;34876;51.464;-0.150;2023-11-21T05:35:44;101733.30;;;18.13;48.88
49063;BME280;34876;51.464;-0.150;2023-11-21T05:38:13;101743.22;;;17.61;49.99
49063;BME280;34876;51.464;-0.150;2023-11-21T05:40:42;101747.64;;;17.68;49.67
49063;BME280;34876;51.464;-0.150;2023-11-21T05:43:12;101756.46;;;17.55;49.50
49063;BME280;34876;51.464;-0.150;2023-11-21T05:45:40;101756.52;;;17.88;49.54
49063;BME280;34876;51.464;-0.150;2023-11-21T05:48:09;101759.72;;;18.10;48.89
49063;BME280;34876;51.464;-0.150;2023-11-21T05:50:38;101765.28;;;18.08;48.90
49063;BME280;34876;51.464;-0.150;2023-11-21T05:53:08;101769.81;;;17.86;49.46
49063;BME280;34876;51.464;-0.150;2023-11-21T05:55:37;101774.82;;;18.13;48.69
49063;BME280;34876;51.464;-0.150;2023-11-21T05:58:06;101777.92;;;18.29;48.28
49063;BME280;34876;51.464;-0.150;2023-11-21T06:00:37;101785.12;;;18.32;48.13
49063;BME280;34876;51.464;-0.150;2023-11-21T06:03:06;101792.11;;;18.33;48.09
49063;BME280;34876;51.464;-0.150;2023-11-21T06:05:35;101796.72;;;18.17;48.46
49063;BME280;34876;51.464;-0.150;2023-11-21T06:08:04;101796.34;;;17.59;50.00
49063;BME280;34876;51.464;-0.150;2023-11-21T06:10:33;101801.36;;;18.16;48.52
49063;BME280;34876;51.464;-0.150;2023-11-21T06:13:03;101815.11;;;18.20;48.40
49063;BME280;34876;51.464;-0.150;2023-11-21T06:15:32;101824.56;;;17.28;50.78
49063;BME280;34876;51.464;-0.150;2023-11-21T06:18:02;101829.70;;;17.98;48.99
49063;BME280;34876;51.464;-0.150;2023-11-21T06:20:31;101845.56;;;17.51;50.12
49063;BME280;34876;51.464;-0.150;2023-11-21T06:23:00;101843.02;;;17.42;50.50
49063;BME280;34876;51.464;-0.150;2023-11-21T06:25:29;101835.22;;;17.61;49.98
49063;BME280;34876;51.464;-0.150;2023-11-21T06:27:59;101839.80;;;17.67;49.74
49063;BME280;34876;51.464;-0.150;2023-11-21T06:30:28;101845.08;;;17.63;49.46
49063;BME280;34876;51.464;-0.150;2023-11-21T06:32:57;101843.71;;;17.83;49.17
49063;BME280;34876;51.464;-0.150;2023-11-21T06:35:26;101846.05;;;18.13;48.42
49063;BME280;34876;51.464;-0.150;2023-11-21T06:37:56;101848.15;;;18.01;48.59
49063;BME280;34876;51.464;-0.150;2023-11-21T06:40:24;101854.26;;;17.54;47.15
49063;BME280;34876;51.464;-0.150;2023-11-21T06:42:54;101859.82;;;17.35;48.97
49063;BME280;34876;51.464;-0.150;2023-11-21T06:45:22;101858.52;;;18.05;48.55
49063;BME280;34876;51.464;-0.150;2023-11-21T06:47:51;101864.63;;;17.71;48.61
49063;BME280;34876;51.464;-0.150;2023-11-21T06:50:20;101866.73;;;17.97;48.71
49063;BME280;34876;51.464;-0.150;2023-11-21T06:52:49;101870.51;;;17.59;49.51
49063;BME280;34876;51.464;-0.150;2023-11-21T06:55:19;101875.36;;;18.12;48.23
49063;BME280;34876;51.464;-0.150;2023-11-21T06:57:48;101876.71;;;17.53;49.59
49063;BME280;34876;51.464;-0.150;2023-11-21T07:00:17;101884.73;;;17.88;48.79
49063;BME280;34876;51.464;-0.150;2023-11-21T07:02:46;101889.81;;;17.91;48.22
49063;BME280;34876;51.464;-0.150;2023-11-21T07:05:16;101899.55;;;17.88;48.73
49063;BME280;34876;51.464;-0.150;2023-11-21T07:07:44;101903.05;;;18.01;48.37
49063;BME280;34876;51.464;-0.150;2023-11-21T07:10:14;101903.97;;;17.98;48.42
49063;BME280;34876;51.464;-0.150;2023-11-21T07:12:43;101902.43;;;18.20;47.87
49063;BME280;34876;51.464;-0.150;2023-11-21T07:15:12;101907.36;;;18.18;47.88
49063;BME280;34876;51.464;-0.150;2023-11-21T07:17:40;101912.08;;;18.09;48.02
49063;BME280;34876;51.464;-0.150;2023-11-21T07:20:10;101922.76;;;17.39;49.41
49063;BME280;34876;51.464;-0.150;2023-11-21T07:22:39;101919.19;;;17.77;48.93
49063;BME280;34876;51.464;-0.150;2023-11-21T07:25:08;101932.43;;;17.61;47.13
49063;BME280;34876;51.464;-0.150;2023-11-21T07:27:37;101930.33;;;17.98;48.33
49063;BME280;34876;51.464;-0.150;2023-11-21T07:30:07;101935.75;;;18.15;47.86
49063;BME280;34876;51.464;-0.150;2023-11-21T07:32:37;101943.04;;;18.20;47.70
49063;BME280;34876;51.464;-0.150;2023-11-21T07:35:06;101939.25;;;18.22;47.61
49063;BME280;34876;51.464;-0.150;2023-11-21T07:37:36;101947.61;;;18.12;47.89
49063;BME280;34876;51.464;-0.150;2023-11-21T07:40:06;101952.54;;;18.23;47.57
49063;BME280;34876;51.464;-0.150;2023-11-21T07:42:35;101959.23;;;17.71;48.33
49063;BME280;34876;51.464;-0.150;2023-11-21T07:45:05;101961.50;;;18.09;47.92
49063;BME280;34876;51.464;-0.150;2023-11-21T07:47:35;101969.07;;;18.15;47.70
49063;BME280;34876;51.464;-0.150;2023-11-21T07:50:04;101970.34;;;18.08;47.85
49063;BME280;34876;51.464;-0.150;2023-11-21T07:52:33;101980.95;;;18.08;47.86
49063;BME280;34876;51.464;-0.150;2023-11-21T07:55:09;101980.39;;;18.08;47.82
49063;BME280;34876;51.464;-0.150;2023-11-21T07:57:38;101981.74;;;18.18;47.66
49063;BME280;34876;51.464;-0.150;2023-11-21T08:00:08;101986.97;;;18.23;47.45
49063;BME280;34876;51.464;-0.150;2023-11-21T08:02:37;101984.70;;;18.29;47.33
49063;BME280;34876;51.464;-0.150;2023-11-21T08:05:08;101992.51;;;18.12;47.70
49063;BME280;34876;51.464;-0.150;2023-11-21T08:07:37;101998.55;;;18.24;47.39
49063;BME280;34876;51.464;-0.150;2023-11-21T08:10:08;102000.17;;;18.20;47.45
49063;BME280;34876;51.464;-0.150;2023-11-21T08:12:36;102013.74;;;17.42;48.84
49063;BME280;34876;51.464;-0.150;2023-11-21T08:15:07;102012.75;;;17.33;49.52
49063;BME280;34876;51.464;-0.150;2023-11-21T08:17:37;102017.62;;;18.06;47.89
49063;BME280;34876;51.464;-0.150;2023-11-21T08:20:07;102019.08;;;17.71;48.53
49063;BME280;34876;51.464;-0.150;2023-11-21T08:22:36;102022.40;;;17.99;47.99
49063;BME280;34876;51.464;-0.150;2023-11-21T08:25:07;102027.74;;;17.87;48.30
49063;BME280;34876;51.464;-0.150;2023-11-21T08:27:36;102029.07;;;18.09;47.74
49063;BME280;34876;51.464;-0.150;2023-11-21T08:30:06;102031.83;;;18.08;47.72
49063;BME280;34876;51.464;-0.150;2023-11-21T08:32:36;102032.16;;;18.13;47.55
49063;BME280;34876;51.464;-0.150;2023-11-21T08:35:07;102038.11;;;18.11;47.53
49063;BME280;34876;51.464;-0.150;2023-11-21T08:37:37;102041.00;;;18.22;47.30
49063;BME280;34876;51.464;-0.150;2023-11-21T08:40:06;102045.77;;;17.93;46.55
49063;BME280;34876;51.464;-0.150;2023-11-21T08:42:37;102052.56;;;18.20;47.42
49063;BME280;34876;51.464;-0.150;2023-11-21T08:45:07;102059.34;;;18.26;47.29
49063;BME280;34876;51.464;-0.150;2023-11-21T08:47:37;102061.30;;;18.27;47.24
49063;BME280;34876;51.464;-0.150;2023-11-21T08:50:08;102061.88;;;17.42;49.27
49063;BME280;34876;51.464;-0.150;2023-11-21T08:52:37;102057.81;;;18.11;47.65
49063;BME280;34876;51.464;-0.150;2023-11-21T08:55:08;102056.06;;;17.73;47.58
49063;BME280;34876;51.464;-0.150;2023-11-21T08:57:36;102060.10;;;17.83;48.44
49063;BME280;34876;51.464;-0.150;2023-11-21T09:00:12;102060.66;;;18.17;47.53
49063;BME280;34876;51.464;-0.150;2023-11-21T09:02:41;102057.47;;;18.03;47.85
49063;BME280;34876;51.464;-0.150;2023-11-21T09:05:12;102063.19;;;18.18;47.46
49063;BME280;34876;51.464;-0.150;2023-11-21T09:07:41;102070.11;;;18.17;47.50
49063;BME280;34876;51.464;-0.150;2023-11-21T09:10:11;102076.60;;;18.27;47.26
49063;BME280;34876;51.464;-0.150;2023-11-21T09:12:40;102083.32;;;18.29;47.19
49063;BME280;34876;51.464;-0.150;2023-11-21T09:15:10;102086.30;;;18.27;47.22
49063;BME280;34876;51.464;-0.150;2023-11-21T09:17:39;102087.72;;;18.04;47.80
49063;BME280;34876;51.464;-0.150;2023-11-21T09:20:09;102084.99;;;18.12;47.59
49063;BME280;34876;51.464;-0.150;2023-11-21T09:22:38;102086.30;;;18.27;47.28
49063;BME280;34876;51.464;-0.150;2023-11-21T09:25:08;102094.69;;;18.27;47.22
49063;BME280;34876;51.464;-0.150;2023-11-21T09:27:37;102099.69;;;18.03;47.76
49063;BME280;34876;51.464;-0.150;2023-11-21T09:30:08;102103.65;;;18.29;47.17
49063;BME280;34876;51.464;-0.150;2023-11-21T09:32:38;102109.92;;;18.27;47.22
49063;BME280;34876;51.464;-0.150;2023-11-21T09:35:09;102111.72;;;18.34;47.01
49063;BME280;34876;51.464;-0.150;2023-11-21T09:37:38;102116.27;;;18.35;46.98
49063;BME280;34876;51.464;-0.150;2023-11-21T09:40:10;102116.19;;;18.37;46.92
49063;BME280;34876;51.464;-0.150;2023-11-21T09:42:42;102119.29;;;18.33;47.06
49063;BME280;34876;51.464;-0.150;2023-11-21T09:45:16;102118.83;;;18.32;47.04
49063;BME280;34876;51.464;-0.150;2023-11-21T09:47:47;102122.29;;;18.39;46.90
49063;BME280;34876;51.464;-0.150;2023-11-21T09:50:17;102122.12;;;18.07;47.55
49063;BME280;34876;51.464;-0.150;2023-11-21T09:52:55;102133.41;;;18.33;46.99
49063;BME280;34876;51.464;-0.150;2023-11-21T09:55:27;102134.22;;;18.30;47.15
49063;BME280;34876;51.464;-0.150;2023-11-21T09:57:58;102133.30;;;18.31;47.06
49063;BME280;34876;51.464;-0.150;2023-11-21T10:00:28;102138.15;;;17.89;48.13
49063;BME280;34876;51.464;-0.150;2023-11-21T10:02:58;102141.27;;;18.19;46.87
49063;BME280;34876;51.464;-0.150;2023-11-21T10:05:26;102140.89;;;18.13;47.53
49063;BME280;34876;51.464;-0.150;2023-11-21T10:07:56;102152.42;;;18.08;47.55
49063;BME280;34876;51.464;-0.150;2023-11-21T10:10:27;102156.31;;;18.26;47.23
49063;BME280;34876;51.464;-0.150;2023-11-21T10:13:01;102155.43;;;18.24;46.83
49063;BME280;34876;51.464;-0.150;2023-11-21T10:15:31;102155.19;;;18.31;47.12
49063;BME280;34876;51.464;-0.150;2023-11-21T10:18:03;102158.02;;;18.17;47.16
49063;BME280;34876;51.464;-0.150;2023-11-21T10:20:33;102160.04;;;18.13;47.59
49063;BME280;34876;51.464;-0.150;2023-11-21T10:23:03;102165.72;;;18.23;47.31
49063;BME280;34876;51.464;-0.150;2023-11-21T10:25:33;102166.84;;;18.33;47.06
49063;BME280;34876;51.464;-0.150;2023-11-21T10:28:03;102161.38;;;18.30;47.13
49063;BME280;34876;51.464;-0.150;2023-11-21T10:30:34;102160.21;;;18.34;47.09
49063;BME280;34876;51.464;-0.150;2023-11-21T10:33:06;102161.38;;;18.25;47.29
49063;BME280;34876;51.464;-0.150;2023-11-21T10:35:50;102160.13;;;18.36;46.99
49063;BME280;34876;51.464;-0.150;2023-11-21T10:38:20;102160.58;;;18.38;46.95
49063;BME280;34876;51.464;-0.150;2023-11-21T10:40:50;102164.22;;;18.12;47.57
49063;BME280;34876;51.464;-0.150;2023-11-21T10:43:19;102162.32;;;18.34;47.09
49063;BME280;34876;51.464;-0.150;2023-11-21T10:45:47;102166.98;;;18.22;47.36
49063;BME280;34876;51.464;-0.150;2023-11-21T10:48:16;102164.31;;;18.27;47.28
49063;BME280;34876;51.464;-0.150;2023-11-21T10:50:51;102169.21;;;18.32;47.15
49063;BME280;34876;51.464;-0.150;2023-11-21T10:53:20;102181.21;;;17.35;49.45
49063;BME280;34876;51.464;-0.150;2023-11-21T10:55:50;102178.60;;;18.19;47.54
49063;BME280;34876;51.464;-0.150;2023-11-21T10:58:19;102178.87;;;17.96;48.10
49063;BME280;34876;51.464;-0.150;2023-11-21T11:00:49;102176.17;;;18.23;47.44
49063;BME280;34876;51.464;-0.150;2023-11-21T11:03:18;102174.93;;;18.30;47.27
49063;BME280;34876;51.464;-0.150;2023-11-21T11:05:48;102170.67;;;18.37;47.06
49063;BME280;34876;51.464;-0.150;2023-11-21T11:08:21;102171.94;;;18.35;47.13
49063;BME280;34876;51.464;-0.150;2023-11-21T11:10:51;102176.43;;;18.39;47.02
49063;BME280;34876;51.464;-0.150;2023-11-21T11:13:26;102177.31;;;18.26;47.42
49063;BME280;34876;51.464;-0.150;2023-11-21T11:15:58;102174.44;;;18.37;47.12
49063;BME280;34876;51.464;-0.150;2023-11-21T11:18:28;102176.76;;;18.40;47.04
49063;BME280;34876;51.464;-0.150;2023-11-21T11:21:06;102171.56;;;18.32;47.27
49063;BME280;34876;51.464;-0.150;2023-11-21T11:23:53;102177.43;;;18.36;47.17
49063;BME280;34876;51.464;-0.150;2023-11-21T11:26:35;102173.27;;;18.14;47.74
49063;BME280;34876;51.464;-0.150;2023-11-21T11:29:13;102176.16;;;18.34;47.27
49063;BME280;34876;51.464;-0.150;2023-11-21T11:31:53;102179.60;;;18.37;47.19
49063;BME280;34876;51.464;-0.150;2023-11-21T11:34:29;102182.31;;;18.41;47.09
49063;BME280;34876;51.464;-0.150;2023-11-21T11:37:06;102180.86;;;17.68;48.93
49063;BME280;34876;51.464;-0.150;2023-11-21T11:39:37;102182.02;;;18.24;47.57
49063;BME280;34876;51.464;-0.150;2023-11-21T11:42:11;102184.50;;;18.29;47.48
49063;BME280;34876;51.464;-0.150;2023-11-21T11:44:49;102187.85;;;17.66;49.06
49063;BME280;34876;51.464;-0.150;2023-11-21T11:47:22;102190.07;;;17.54;49.54
49063;BME280;34876;51.464;-0.150;2023-11-21T11:49:57;102189.32;;;18.13;47.96
49063;BME280;34876;51.464;-0.150;2023-11-21T11:52:34;102194.26;;;18.00;48.25
49063;BME280;34876;51.464;-0.150;2023-11-21T11:55:32;102195.98;;;17.99;48.35
49063;BME280;34876;51.464;-0.150;2023-11-21T11:58:06;102197.00;;;18.09;48.07
49063;BME280;34876;51.464;-0.150;2023-11-21T12:00:36;102200.76;;;18.27;47.62
49063;BME280;34876;51.464;-0.150;2023-11-21T12:03:10;102204.44;;;18.31;47.49
49063;BME280;34876;51.464;-0.150;2023-11-21T12:05:40;102207.88;;;18.25;47.68
49063;BME280;34876;51.464;-0.150;2023-11-21T12:08:11;102208.64;;;18.04;48.27
49063;BME280;34876;51.464;-0.150;2023-11-21T12:10:39;102209.01;;;18.26;47.66
49063;BME280;34876;51.464;-0.150;2023-11-21T12:13:15;102211.71;;;18.27;47.62
49063;BME280;34876;51.464;-0.150;2023-11-21T12:15:44;102213.06;;;18.25;47.70
49063;BME280;34876;51.464;-0.150;2023-11-21T12:18:12;102214.94;;;18.37;47.38
49063;BME280;34876;51.464;-0.150;2023-11-21T12:20:41;102219.24;;;18.37;47.40
49063;BME280;34876;51.464;-0.150;2023-11-21T12:23:16;102220.35;;;18.30;47.53
49063;BME280;34876;51.464;-0.150;2023-11-21T12:25:46;102219.28;;;18.09;48.20
49063;BME280;34876;51.464;-0.150;2023-11-21T12:28:15;102230.27;;;18.16;48.03
49063;BME280;34876;51.464;-0.150;2023-11-21T12:30:47;102238.00;;;17.84;48.85
49063;BME280;34876;51.464;-0.150;2023-11-21T12:33:17;102239.54;;;18.20;47.93
49063;BME280;34876;51.464;-0.150;2023-11-21T12:35:47;102246.05;;;17.54;49.68
49063;BME280;34876;51.464;-0.150;2023-11-21T12:38:17;102249.25;;;18.21;47.94
49063;BME280;34876;51.464;-0.150;2023-11-21T12:40:46;102251.68;;;18.19;48.02
49063;BME280;34876;51.464;-0.150;2023-11-21T12:43:15;102257.30;;;18.36;47.53
49063;BME280;34876;51.464;-0.150;2023-11-21T12:45:44;102262.36;;;18.41;47.39
49063;BME280;34876;51.464;-0.150;2023-11-21T12:48:13;102271.78;;;18.19;47.98
49063;BME280;34876;51.464;-0.150;2023-11-21T12:50:42;102267.53;;;18.35;47.56
49063;BME280;34876;51.464;-0.150;2023-11-21T12:53:13;102271.55;;;18.44;47.36
49063;BME280;34876;51.464;-0.150;2023-11-21T12:55:44;102272.36;;;18.27;47.94
49063;BME280;34876;51.464;-0.150;2023-11-21T12:58:13;102275.63;;;18.41;47.53